Terminal Aerodrome Forecast
Issued by NWS Sterling, VA

Home | Current Version | Previous Version | Text Only | Print | Product List | Glossary On
Versions: 1 2 3 4 5 6 7 8 9 10 11 12 13 14 15 16 17 18 19 20 21 22
000
FTUS41 KLWX 170500
TAFDCA
TAF
KDCA 170535Z 1706/1806 01004KT P6SM FEW200
     FM171500 03004KT P6SM FEW050
     FM171900 18004KT P6SM FEW050
     FM180400 00000KT P6SM FEW050=

USA.gov is the U.S. government's official web portal to all federal, state and local government web resources and services.